createdAt,value
2023-02-13T00:01:21.140Z,13.93
2023-02-13T00:03:22.958Z,15.05
2023-02-13T00:05:24.703Z,14.70
2023-02-13T00:07:26.522Z,14.35
2023-02-13T00:09:28.162Z,15.50
2023-02-13T00:11:29.841Z,12.20
2023-02-13T00:13:31.505Z,12.45
2023-02-13T00:15:33.768Z,13.25
2023-02-13T00:17:36.030Z,13.35
2023-02-13T00:19:37.693Z,12.07
2023-02-13T00:21:39.439Z,12.88
2023-02-13T00:23:41.213Z,13.05
2023-02-13T00:25:42.813Z,13.23
2023-02-13T00:27:44.460Z,14.00
2023-02-13T00:29:46.138Z,12.52
2023-02-13T00:31:48.005Z,14.07
2023-02-13T00:33:50.079Z,15.20
2023-02-13T00:35:51.683Z,13.25
2023-02-13T00:37:53.367Z,13.57
2023-02-13T00:39:55.002Z,11.30
2023-02-13T00:41:56.650Z,12.50
2023-02-13T00:43:58.289Z,14.70
2023-02-13T00:46:00.478Z,12.48
2023-02-13T00:48:02.140Z,13.52
2023-02-13T00:50:04.061Z,11.75
2023-02-13T00:52:05.742Z,13.18
2023-02-13T00:54:07.422Z,13.93
2023-02-13T00:56:09.107Z,12.88
2023-02-13T00:58:10.881Z,12.82
2023-02-13T01:00:13.210Z,12.27
2023-02-13T01:02:17.498Z,11.82
2023-02-13T01:04:19.242Z,13.10
2023-02-13T01:06:20.899Z,13.65
2023-02-13T01:08:22.695Z,14.30
2023-02-13T01:10:24.743Z,12.68
2023-02-13T01:12:27.531Z,12.35
2023-02-13T01:14:29.233Z,11.50
2023-02-13T01:16:30.920Z,12.32
2023-02-13T01:18:32.667Z,12.68
2023-02-13T01:20:34.387Z,10.80
2023-02-13T01:22:36.105Z,12.95
2023-02-13T01:24:37.770Z,10.32
2023-02-13T01:26:39.576Z,12.55
2023-02-13T01:28:41.287Z,10.77
2023-02-13T01:30:42.934Z,13.07
2023-02-13T01:32:45.682Z,11.02
2023-02-13T01:34:47.632Z,12.40
2023-02-13T01:36:49.253Z,12.85
2023-02-13T01:38:56.239Z,11.35
2023-02-13T01:40:58.135Z,11.15
2023-02-13T01:43:00.012Z,11.43
2023-02-13T01:45:05.864Z,13.10
2023-02-13T01:47:09.551Z,11.52
2023-02-13T01:49:14.646Z,12.80
2023-02-13T01:51:26.637Z,10.18
2023-02-13T01:53:33.912Z,13.02
2023-02-13T01:55:44.635Z,10.63
2023-02-13T01:57:51.726Z,11.68
2023-02-13T01:59:57.819Z,10.95
2023-02-13T02:02:00.197Z,11.43
2023-02-13T02:04:09.508Z,11.20
2023-02-13T02:06:25.900Z,10.70
2023-02-13T02:08:27.671Z,9.93
2023-02-13T02:10:29.568Z,11.80
2023-02-13T02:12:50.098Z,10.95
2023-02-13T02:14:53.600Z,9.98
2023-02-13T02:16:56.355Z,11.52
2023-02-13T02:18:58.036Z,10.15
2023-02-13T02:21:21.045Z,11.43
2023-02-13T02:23:47.302Z,10.80
2023-02-13T02:26:16.107Z,9.77
2023-02-13T02:28:36.541Z,10.82
2023-02-13T02:31:12.483Z,10.52
2023-02-13T02:33:14.367Z,9.75
2023-02-13T02:35:37.665Z,12.57
2023-02-13T02:37:45.401Z,10.20
2023-02-13T02:40:11.388Z,11.68
2023-02-13T02:42:21.823Z,11.43
2023-02-13T02:44:35.575Z,10.68
2023-02-13T02:47:12.414Z,11.02
2023-02-13T02:49:34.144Z,11.25
2023-02-13T02:51:46.995Z,11.68
2023-02-13T02:54:46.981Z,10.32
2023-02-13T02:56:49.093Z,10.15
2023-02-13T02:59:24.174Z,11.52
2023-02-13T03:01:48.914Z,9.63
2023-02-13T03:04:09.681Z,9.77
2023-02-13T03:06:22.816Z,9.85
2023-02-13T03:08:44.493Z,10.13
2023-02-13T03:11:05.985Z,9.90
2023-02-13T03:13:23.842Z,9.07
2023-02-13T03:15:29.130Z,9.05
2023-02-13T03:17:49.771Z,10.52
2023-02-13T03:20:19.333Z,8.93
2023-02-13T03:22:45.678Z,9.75
2023-02-13T03:25:15.444Z,11.25
2023-02-13T03:28:06.901Z,9.68
2023-02-13T03:30:35.065Z,9.95
2023-02-13T03:32:55.403Z,11.50
2023-02-13T03:35:27.569Z,10.57
2023-02-13T03:37:54.418Z,11.25
2023-02-13T03:40:01.402Z,12.48
2023-02-13T03:42:38.540Z,10.95
2023-02-13T03:44:44.518Z,11.70
2023-02-13T03:46:48.492Z,12.10
2023-02-13T03:49:09.041Z,9.93
2023-02-13T03:51:12.674Z,10.65
2023-02-13T03:53:15.481Z,10.02
2023-02-13T03:55:42.046Z,13.52
2023-02-13T03:58:03.434Z,11.90
2023-02-13T04:00:08.898Z,14.60
2023-02-13T04:02:13.963Z,14.00
2023-02-13T04:04:38.468Z,14.55
2023-02-13T04:06:45.837Z,14.93
2023-02-13T04:08:47.585Z,14.02
2023-02-13T04:10:54.168Z,13.55
2023-02-13T04:13:26.396Z,14.05
2023-02-13T04:15:37.692Z,15.57
2023-02-13T04:17:42.850Z,14.60
2023-02-13T04:19:44.812Z,15.27
2023-02-13T04:21:50.177Z,15.93
2023-02-13T04:23:51.810Z,15.80
2023-02-13T04:25:56.268Z,14.68
2023-02-13T04:27:57.967Z,14.15
2023-02-13T04:29:59.568Z,14.25
2023-02-13T04:32:01.275Z,14.10
2023-02-13T04:34:03.041Z,15.43
2023-02-13T04:36:05.420Z,14.80
2023-02-13T04:38:10.025Z,15.32
2023-02-13T04:40:11.954Z,14.05
2023-02-13T04:42:13.582Z,13.73
2023-02-13T04:44:15.278Z,12.88
2023-02-13T04:46:16.996Z,12.63
2023-02-13T04:48:18.816Z,14.02
2023-02-13T04:50:21.037Z,12.65
2023-02-13T04:52:22.705Z,12.20
2023-02-13T04:54:24.426Z,11.80
2023-02-13T04:56:26.153Z,11.23
2023-02-13T04:58:28.099Z,10.70
2023-02-13T05:00:29.999Z,10.63
2023-02-13T05:02:31.684Z,10.85
2023-02-13T05:04:33.985Z,11.85
2023-02-13T05:06:35.665Z,10.85
2023-02-13T05:08:37.519Z,12.05
2023-02-13T05:10:39.272Z,12.63
2023-02-13T05:12:44.121Z,13.52
2023-02-13T05:14:46.104Z,12.23
2023-02-13T05:16:47.927Z,11.50
2023-02-13T05:18:49.619Z,11.65
2023-02-13T05:21:10.084Z,11.57
2023-02-13T05:23:24.322Z,10.60
2023-02-13T05:25:26.246Z,10.32
2023-02-13T05:27:27.882Z,11.35
2023-02-13T05:29:29.506Z,11.88
2023-02-13T05:31:31.202Z,9.25
2023-02-13T05:33:32.884Z,10.85
2023-02-13T05:35:34.528Z,11.15
2023-02-13T05:37:36.301Z,10.75
2023-02-13T05:39:37.960Z,13.35
2023-02-13T05:41:39.572Z,10.00
2023-02-13T05:43:41.260Z,10.65
2023-02-13T05:45:42.912Z,10.52
2023-02-13T05:47:44.699Z,9.88
2023-02-13T05:49:46.370Z,9.68
2023-02-13T05:51:48.001Z,9.73
2023-02-13T05:53:49.617Z,8.85
2023-02-13T05:55:52.321Z,9.63
2023-02-13T05:57:57.995Z,9.27
2023-02-13T05:59:59.621Z,8.75
2023-02-13T06:02:01.227Z,9.90
2023-02-13T06:04:04.096Z,8.88
2023-02-13T06:06:06.034Z,10.32
2023-02-13T06:08:07.814Z,11.80
2023-02-13T06:10:09.715Z,11.15
2023-02-13T06:12:11.334Z,10.65
2023-02-13T06:14:14.757Z,9.23
2023-02-13T06:16:16.608Z,10.07
2023-02-13T06:18:36.163Z,9.90
2023-02-13T06:20:50.856Z,9.65
2023-02-13T06:22:53.444Z,10.40
2023-02-13T06:24:55.271Z,9.40
2023-02-13T06:26:59.518Z,10.98
2023-02-13T06:29:09.825Z,11.48
2023-02-13T06:31:11.686Z,9.35
2023-02-13T06:33:13.598Z,9.50
2023-02-13T06:35:16.388Z,10.00
2023-02-13T06:37:18.219Z,8.77
2023-02-13T06:39:19.962Z,9.50
2023-02-13T06:41:21.823Z,9.75
2023-02-13T06:43:33.404Z,9.55
2023-02-13T06:45:35.157Z,9.13
2023-02-13T06:47:37.200Z,8.82
2023-02-13T06:49:39.230Z,9.38
2023-02-13T06:51:41.001Z,9.15
2023-02-13T06:53:42.714Z,10.27
2023-02-13T06:55:45.376Z,9.85
2023-02-13T06:57:55.330Z,8.70
2023-02-13T06:59:57.203Z,9.23
2023-02-13T07:01:59.029Z,9.60
2023-02-13T07:04:01.093Z,7.82
2023-02-13T07:06:02.817Z,8.65
2023-02-13T07:08:05.014Z,7.78
2023-02-13T07:10:12.087Z,8.25
2023-02-13T07:12:21.985Z,8.40
2023-02-13T07:14:24.162Z,8.23
2023-02-13T07:16:25.916Z,7.47
2023-02-13T07:18:27.661Z,6.63
2023-02-13T07:20:30.951Z,7.97
2023-02-13T07:22:33.462Z,7.90
2023-02-13T07:24:35.616Z,8.77
2023-02-13T07:26:37.241Z,11.10
2023-02-13T07:28:39.129Z,7.10
2023-02-13T07:30:41.239Z,9.10
2023-02-13T07:32:47.998Z,10.50
2023-02-13T07:35:09.769Z,8.52
2023-02-13T07:37:11.742Z,8.00
2023-02-13T07:39:13.520Z,9.70
2023-02-13T07:41:15.716Z,9.82
2023-02-13T07:43:17.743Z,8.45
2023-02-13T07:45:22.811Z,9.50
2023-02-13T07:47:25.873Z,7.47
2023-02-13T07:49:37.824Z,8.48
2023-02-13T07:51:39.477Z,9.82
2023-02-13T07:53:41.392Z,8.98
2023-02-13T07:55:45.890Z,7.68
2023-02-13T07:58:09.247Z,9.13
2023-02-13T08:00:26.200Z,11.02
2023-02-13T08:02:28.334Z,9.82
2023-02-13T08:04:32.832Z,9.25
2023-02-13T08:06:34.478Z,11.40
2023-02-13T08:08:46.996Z,7.18
2023-02-13T08:11:09.779Z,7.57
2023-02-13T08:13:15.548Z,8.35
2023-02-13T08:15:19.624Z,7.50
2023-02-13T08:17:21.767Z,8.05
2023-02-13T08:19:23.769Z,9.32
2023-02-13T08:21:25.660Z,8.15
2023-02-13T08:23:27.309Z,9.18
2023-02-13T08:25:34.469Z,8.65
2023-02-13T08:27:39.187Z,9.52
2023-02-13T08:29:40.946Z,8.65
2023-02-13T08:31:43.074Z,9.63
2023-02-13T08:33:44.958Z,8.27
2023-02-13T08:35:46.714Z,9.32
2023-02-13T08:37:48.427Z,8.60
2023-02-13T08:39:55.810Z,8.70
2023-02-13T08:41:57.458Z,8.35
2023-02-13T08:43:59.418Z,9.27
2023-02-13T08:46:04.133Z,8.57
2023-02-13T08:48:07.692Z,7.38
2023-02-13T08:50:10.185Z,8.45
2023-02-13T08:52:12.196Z,9.90
2023-02-13T08:54:18.472Z,8.52
2023-02-13T08:56:21.770Z,9.02
2023-02-13T08:58:24.449Z,8.80
2023-02-13T09:00:26.272Z,8.25
2023-02-13T09:02:28.028Z,8.35
2023-02-13T09:04:29.848Z,10.00
2023-02-13T09:06:31.546Z,10.40
2023-02-13T09:08:35.861Z,11.20
2023-02-13T09:10:51.367Z,9.43
2023-02-13T09:12:54.354Z,10.23
2023-02-13T09:14:56.027Z,10.30
2023-02-13T09:16:58.136Z,9.63
2023-02-13T09:18:59.878Z,9.82
2023-02-13T09:21:06.857Z,9.23
2023-02-13T09:23:08.544Z,9.65
2023-02-13T09:25:10.407Z,9.05
2023-02-13T09:27:12.034Z,7.97
2023-02-13T09:29:13.788Z,10.45
2023-02-13T09:31:20.567Z,10.57
2023-02-13T09:33:22.534Z,10.80
2023-02-13T09:35:24.462Z,10.10
2023-02-13T09:37:27.099Z,11.13
2023-02-13T09:39:29.284Z,10.18
2023-02-13T09:41:43.239Z,10.30
2023-02-13T09:43:47.398Z,11.23
2023-02-13T09:45:50.974Z,11.43
2023-02-13T09:47:52.710Z,11.13
2023-02-13T09:50:22.598Z,9.30
2023-02-13T09:52:26.445Z,10.48
2023-02-13T09:54:29.066Z,10.85
2023-02-13T09:57:00.588Z,11.18
2023-02-13T09:59:09.442Z,10.57
2023-02-13T10:01:31.435Z,10.25
2023-02-13T10:03:39.641Z,8.55
2023-02-13T10:06:02.627Z,9.60
2023-02-13T10:08:28.696Z,8.55
2023-02-13T10:10:48.633Z,9.65
2023-02-13T10:12:53.102Z,9.05
2023-02-13T10:14:58.701Z,9.25
2023-02-13T10:17:04.130Z,9.13
2023-02-13T10:19:30.036Z,9.25
2023-02-13T10:21:36.044Z,9.75
2023-02-13T10:23:45.014Z,9.50
2023-02-13T10:26:22.829Z,8.65
2023-02-13T10:28:44.230Z,9.30
2023-02-13T10:31:18.394Z,8.63
2023-02-13T10:33:29.163Z,8.55
2023-02-13T10:35:31.677Z,8.75
2023-02-13T10:37:33.380Z,9.82
2023-02-13T10:39:35.071Z,9.27
2023-02-13T10:41:50.917Z,8.38
2023-02-13T10:44:26.743Z,8.98
2023-02-13T10:46:56.231Z,7.65
2023-02-13T10:49:26.577Z,8.27
2023-02-13T10:51:45.790Z,8.73
2023-02-13T10:54:21.580Z,8.57
2023-02-13T10:56:43.553Z,8.02
2023-02-13T10:58:59.893Z,7.82
2023-02-13T11:01:14.971Z,8.70
2023-02-13T11:03:36.492Z,9.05
2023-02-13T11:05:41.107Z,8.57
2023-02-13T11:07:43.562Z,8.25
2023-02-13T11:09:52.255Z,9.35
2023-02-13T11:12:11.984Z,8.45
2023-02-13T11:14:25.824Z,8.02
2023-02-13T11:16:27.856Z,8.73
2023-02-13T11:18:34.576Z,8.27
2023-02-13T11:20:44.880Z,7.53
2023-02-13T11:22:46.712Z,7.70
2023-02-13T11:24:54.045Z,7.95
2023-02-13T11:27:13.507Z,7.97
2023-02-13T11:29:36.227Z,6.00
2023-02-13T11:31:38.499Z,6.53
2023-02-13T11:33:41.031Z,6.53
2023-02-13T11:35:53.257Z,8.82
2023-02-13T11:38:23.805Z,7.40
2023-02-13T11:40:32.906Z,7.78
2023-02-13T11:42:36.345Z,6.63
2023-02-13T11:44:43.607Z,7.18
2023-02-13T11:46:50.842Z,7.47
2023-02-13T11:49:18.560Z,7.03
2023-02-13T11:51:28.570Z,6.88
2023-02-13T11:53:36.157Z,6.82
2023-02-13T11:55:40.505Z,7.60
2023-02-13T11:57:57.272Z,6.50
2023-02-13T12:00:31.197Z,6.30
2023-02-13T12:02:47.751Z,6.18
2023-02-13T12:04:52.434Z,6.43
2023-02-13T12:07:12.751Z,7.50
2023-02-13T12:09:16.009Z,5.75
2023-02-13T12:11:29.476Z,5.97
2023-02-13T12:13:38.975Z,6.13
2023-02-13T12:15:40.890Z,6.13
2023-02-13T12:18:04.055Z,6.88
2023-02-13T12:20:16.557Z,6.43
2023-02-13T12:22:37.976Z,5.90
2023-02-13T12:24:42.683Z,5.68
2023-02-13T12:26:46.435Z,6.35
2023-02-13T12:29:11.237Z,5.43
2023-02-13T12:31:24.450Z,5.60
2023-02-13T12:33:58.961Z,5.95
2023-02-13T12:36:00.791Z,6.88
2023-02-13T12:38:30.210Z,5.47
2023-02-13T12:40:37.995Z,6.18
2023-02-13T12:42:52.362Z,5.15
2023-02-13T12:45:19.498Z,4.95
2023-02-13T12:47:30.783Z,5.57
2023-02-13T12:49:53.719Z,5.47
2023-02-13T12:52:01.109Z,5.95
2023-02-13T12:54:50.242Z,5.25
2023-02-13T12:57:10.714Z,5.38
2023-02-13T12:59:28.573Z,5.93
2023-02-13T13:01:50.323Z,5.60
2023-02-13T13:03:57.644Z,5.10
2023-02-13T13:06:12.065Z,4.93
2023-02-13T13:08:22.547Z,5.25
2023-02-13T13:10:33.771Z,6.32
2023-02-13T13:12:55.856Z,5.03
2023-02-13T13:15:06.085Z,5.07
2023-02-13T13:17:21.713Z,5.72
2023-02-13T13:19:38.861Z,4.57
2023-02-13T13:22:02.873Z,4.68
2023-02-13T13:24:10.619Z,4.78
2023-02-13T13:26:44.104Z,4.93
2023-02-13T13:28:48.666Z,4.53
2023-02-13T13:30:50.769Z,4.57
2023-02-13T13:33:03.754Z,4.40
2023-02-13T13:35:05.830Z,4.00
2023-02-13T13:37:11.916Z,4.13
2023-02-13T13:39:50.249Z,4.68
2023-02-13T13:42:17.116Z,3.90
2023-02-13T13:44:37.212Z,4.05
2023-02-13T13:46:56.095Z,4.05
2023-02-13T13:49:06.784Z,4.10
2023-02-13T13:51:14.934Z,3.75
2023-02-13T13:53:20.363Z,3.50
2023-02-13T13:55:46.818Z,3.50
2023-02-13T13:57:57.273Z,3.65
2023-02-13T14:00:00.294Z,4.18
2023-02-13T14:02:19.877Z,3.53
2023-02-13T14:04:34.519Z,3.53
2023-02-13T14:06:45.458Z,3.13
2023-02-13T14:08:58.915Z,2.78
2023-02-13T14:11:03.173Z,3.22
2023-02-13T14:13:07.891Z,2.92
2023-02-13T14:15:38.668Z,3.55
2023-02-13T14:17:46.631Z,3.60
2023-02-13T14:19:52.278Z,3.30
2023-02-13T14:21:54.899Z,4.10
2023-02-13T14:24:00.861Z,3.75
2023-02-13T14:26:17.794Z,3.25
2023-02-13T14:28:27.631Z,3.13
2023-02-13T14:30:37.025Z,3.67
2023-02-13T14:32:41.130Z,2.67
2023-02-13T14:34:43.542Z,3.00
2023-02-13T14:37:27.306Z,3.17
2023-02-13T14:39:33.096Z,2.65
2023-02-13T14:42:04.335Z,2.95
2023-02-13T14:44:06.027Z,3.33
2023-02-13T14:46:41.387Z,2.92
2023-02-13T14:49:00.990Z,2.47
2023-02-13T14:51:03.586Z,2.47
2023-02-13T14:53:11.051Z,2.83
2023-02-13T14:55:30.825Z,1.88
2023-02-13T14:57:47.381Z,2.35
2023-02-13T14:59:56.496Z,1.88
2023-02-13T15:02:00.650Z,1.35
2023-02-13T15:04:15.547Z,1.20
2023-02-13T15:06:38.810Z,1.23
2023-02-13T15:08:51.000Z,1.05
2023-02-13T15:10:54.869Z,1.35
2023-02-13T15:12:58.377Z,1.20
2023-02-13T15:15:05.779Z,1.30
2023-02-13T15:17:13.513Z,1.58
2023-02-13T15:19:16.697Z,1.42
2023-02-13T15:21:24.499Z,1.02
2023-02-13T15:23:32.210Z,1.00
2023-02-13T15:25:38.795Z,0.90
2023-02-13T15:27:43.282Z,1.00
2023-02-13T15:30:04.306Z,1.00
2023-02-13T15:32:18.510Z,1.23
2023-02-13T15:34:34.286Z,1.08
2023-02-13T15:36:41.141Z,1.10
2023-02-13T15:38:42.772Z,0.90
2023-02-13T15:40:44.505Z,1.30
2023-02-13T15:42:46.644Z,1.33
2023-02-13T15:44:51.218Z,1.20
2023-02-13T15:46:54.451Z,1.00
2023-02-13T15:48:58.581Z,1.02
2023-02-13T15:51:00.626Z,1.10
2023-02-13T15:53:04.906Z,0.85
2023-02-13T15:55:06.679Z,1.02
2023-02-13T15:57:11.044Z,1.10
2023-02-13T15:59:13.908Z,1.02
2023-02-13T16:01:17.015Z,1.10
2023-02-13T16:03:19.048Z,1.00
2023-02-13T16:05:38.330Z,1.08
2023-02-13T16:07:56.000Z,1.08
2023-02-13T16:10:36.510Z,1.00
2023-02-13T16:12:38.177Z,1.05
2023-02-13T16:14:47.788Z,0.82
2023-02-13T16:17:02.423Z,1.17
2023-02-13T16:19:04.329Z,1.38
2023-02-13T16:21:09.140Z,1.08
2023-02-13T16:23:21.081Z,1.38
2023-02-13T16:25:25.851Z,1.05
2023-02-13T16:27:28.404Z,1.38
2023-02-13T16:29:30.141Z,1.20
2023-02-13T16:31:31.838Z,1.42
2023-02-13T16:33:34.978Z,1.08
2023-02-13T16:35:55.207Z,1.15
2023-02-13T16:38:00.896Z,1.98
2023-02-13T16:40:38.620Z,1.45
2023-02-13T16:42:40.204Z,1.35
2023-02-13T16:44:41.828Z,1.58
2023-02-13T16:46:51.700Z,1.50
2023-02-13T16:48:59.396Z,1.67
2023-02-13T16:51:01.125Z,1.70
2023-02-13T16:53:04.000Z,2.33
2023-02-13T16:55:06.393Z,2.10
2023-02-13T16:57:14.128Z,1.55
2023-02-13T16:59:26.047Z,2.25
2023-02-13T17:01:27.817Z,1.38
2023-02-13T17:03:29.719Z,1.60
2023-02-13T17:05:31.298Z,1.70
2023-02-13T17:07:48.978Z,2.03
2023-02-13T17:10:35.360Z,2.03
2023-02-13T17:12:38.413Z,2.05
2023-02-13T17:14:40.420Z,2.13
2023-02-13T17:16:42.121Z,2.33
2023-02-13T17:18:43.805Z,1.98
2023-02-13T17:20:45.642Z,2.88
2023-02-13T17:22:50.273Z,2.75
2023-02-13T17:24:52.180Z,2.42
2023-02-13T17:26:53.750Z,3.13
2023-02-13T17:28:55.413Z,2.30
2023-02-13T17:30:59.913Z,2.50
2023-02-13T17:33:14.042Z,2.45
2023-02-13T17:35:16.275Z,2.53
2023-02-13T17:37:23.665Z,2.40
2023-02-13T17:39:25.288Z,2.80
2023-02-13T17:41:29.847Z,3.00
2023-02-13T17:43:31.533Z,3.10
2023-02-13T17:45:34.223Z,2.92
2023-02-13T17:47:35.852Z,2.50
2023-02-13T17:49:37.475Z,3.30
2023-02-13T17:51:39.703Z,3.00
2023-02-13T17:53:41.408Z,2.83
2023-02-13T17:55:43.021Z,3.60
2023-02-13T17:57:44.776Z,3.17
2023-02-13T17:59:46.815Z,4.20
2023-02-13T18:01:49.292Z,4.85
2023-02-13T18:03:51.080Z,4.70
2023-02-13T18:05:52.725Z,4.50
2023-02-13T18:07:54.587Z,5.00
2023-02-13T18:09:56.225Z,4.93
2023-02-13T18:12:05.396Z,5.78
2023-02-13T18:14:07.632Z,5.45
2023-02-13T18:16:09.966Z,4.82
2023-02-13T18:18:13.416Z,5.18
2023-02-13T18:20:17.913Z,4.88
2023-02-13T18:22:19.495Z,6.20
2023-02-13T18:24:21.116Z,4.63
2023-02-13T18:26:22.740Z,6.40
2023-02-13T18:28:24.332Z,5.95
2023-02-13T18:30:26.037Z,6.47
2023-02-13T18:32:28.042Z,6.88
2023-02-13T18:34:29.715Z,6.30
2023-02-13T18:36:31.372Z,5.75
2023-02-13T18:38:32.965Z,6.53
2023-02-13T18:40:34.541Z,7.20
2023-02-13T18:42:36.219Z,6.15
2023-02-13T18:44:37.856Z,6.20
2023-02-13T18:46:39.489Z,7.10
2023-02-13T18:48:41.207Z,7.05
2023-02-13T18:50:42.990Z,7.32
2023-02-13T18:52:44.687Z,7.90
2023-02-13T18:54:46.414Z,6.93
2023-02-13T18:56:48.462Z,8.00
2023-02-13T18:58:50.090Z,8.35
2023-02-13T19:00:51.649Z,9.10
2023-02-13T19:02:53.488Z,9.82
2023-02-13T19:04:55.171Z,9.10
2023-02-13T19:06:56.887Z,8.77
2023-02-13T19:08:59.171Z,9.82
2023-02-13T19:11:00.839Z,9.45
2023-02-13T19:13:02.395Z,11.25
2023-02-13T19:15:04.759Z,10.55
2023-02-13T19:17:08.549Z,10.60
2023-02-13T19:19:10.603Z,10.57
2023-02-13T19:21:13.021Z,11.45
2023-02-13T19:23:14.639Z,11.30
2023-02-13T19:25:16.606Z,11.63
2023-02-13T19:27:18.372Z,12.65
2023-02-13T19:29:20.059Z,10.52
2023-02-13T19:31:26.486Z,11.75
2023-02-13T19:33:28.183Z,12.65
2023-02-13T19:35:29.799Z,12.40
2023-02-13T19:37:43.007Z,12.75
2023-02-13T19:39:45.615Z,11.88
2023-02-13T19:41:47.229Z,13.57
2023-02-13T19:43:53.565Z,12.38
2023-02-13T19:45:55.279Z,10.88
2023-02-13T19:47:57.255Z,10.95
2023-02-13T19:49:58.901Z,10.55
2023-02-13T19:52:00.519Z,12.70
2023-02-13T19:54:04.973Z,11.75
2023-02-13T19:56:08.006Z,11.35
2023-02-13T19:58:09.554Z,12.75
2023-02-13T20:00:12.851Z,17.70
2023-02-13T20:02:20.999Z,20.13
2023-02-13T20:04:23.634Z,16.17
2023-02-13T20:06:35.846Z,12.50
2023-02-13T20:08:37.801Z,11.98
2023-02-13T20:10:44.050Z,10.98
2023-02-13T20:12:45.657Z,11.13
2023-02-13T20:14:48.688Z,12.30
2023-02-13T20:16:50.464Z,11.60
2023-02-13T20:18:52.337Z,12.88
2023-02-13T20:20:54.517Z,13.38
2023-02-13T20:22:56.114Z,11.20
2023-02-13T20:24:57.798Z,10.32
2023-02-13T20:26:59.474Z,10.25
2023-02-13T20:29:01.390Z,11.80
2023-02-13T20:31:10.526Z,11.13
2023-02-13T20:33:12.250Z,10.70
2023-02-13T20:35:13.896Z,9.43
2023-02-13T20:37:16.367Z,9.80
2023-02-13T20:39:18.117Z,9.90
2023-02-13T20:41:22.700Z,8.82
2023-02-13T20:43:24.250Z,10.50
2023-02-13T20:45:26.149Z,9.90
2023-02-13T20:47:28.210Z,9.43
2023-02-13T20:49:29.824Z,10.65
2023-02-13T20:51:31.544Z,9.25
2023-02-13T20:53:34.131Z,9.55
2023-02-13T20:55:35.770Z,10.07
2023-02-13T20:57:37.401Z,9.15
2023-02-13T20:59:39.130Z,7.97
2023-02-13T21:01:41.597Z,7.90
2023-02-13T21:03:44.002Z,7.82
2023-02-13T21:05:46.048Z,8.55
2023-02-13T21:07:47.674Z,10.38
2023-02-13T21:09:49.302Z,9.43
2023-02-13T21:11:50.934Z,10.52
2023-02-13T21:13:52.528Z,10.98
2023-02-13T21:15:59.012Z,10.27
2023-02-13T21:18:01.796Z,15.45
2023-02-13T21:20:05.645Z,16.40
2023-02-13T21:22:13.281Z,16.13
2023-02-13T21:24:20.222Z,14.85
2023-02-13T21:26:22.179Z,15.93
2023-02-13T21:28:23.776Z,16.95
2023-02-13T21:30:25.729Z,15.73
2023-02-13T21:32:27.408Z,16.80
2023-02-13T21:34:29.336Z,16.00
2023-02-13T21:36:31.966Z,12.68
2023-02-13T21:38:35.066Z,13.20
2023-02-13T21:40:36.730Z,11.13
2023-02-13T21:42:38.333Z,10.52
2023-02-13T21:44:39.942Z,10.43
2023-02-13T21:46:42.262Z,10.63
2023-02-13T21:48:44.307Z,11.35
2023-02-13T21:50:45.939Z,10.27
2023-02-13T21:52:47.556Z,9.65
2023-02-13T21:54:49.254Z,9.15
2023-02-13T21:56:50.921Z,10.73
2023-02-13T21:58:53.176Z,11.48
2023-02-13T22:00:55.058Z,9.40
2023-02-13T22:02:56.758Z,9.90
2023-02-13T22:04:58.519Z,9.55
2023-02-13T22:07:00.293Z,9.00
2023-02-13T22:09:10.546Z,10.43
2023-02-13T22:11:12.296Z,10.68
2023-02-13T22:13:13.871Z,11.07
2023-02-13T22:15:15.568Z,10.93
2023-02-13T22:17:17.193Z,11.63
2023-02-13T22:19:19.531Z,11.85
2023-02-13T22:21:23.011Z,13.75
2023-02-13T22:23:24.818Z,13.60
2023-02-13T22:25:26.443Z,12.30
2023-02-13T22:27:28.052Z,13.45
2023-02-13T22:29:29.616Z,12.55
2023-02-13T22:31:31.373Z,13.85
2023-02-13T22:33:34.038Z,14.82
2023-02-13T22:35:39.618Z,14.77
2023-02-13T22:37:41.288Z,16.85
2023-02-13T22:39:42.923Z,16.25
2023-02-13T22:41:45.738Z,15.63
2023-02-13T22:43:47.676Z,17.15
2023-02-13T22:45:49.299Z,18.67
2023-02-13T22:47:50.940Z,15.35
2023-02-13T22:49:52.542Z,14.10
2023-02-13T22:51:54.132Z,13.93
2023-02-13T22:53:57.199Z,13.23
2023-02-13T22:55:59.101Z,12.52
2023-02-13T22:58:00.685Z,12.25
2023-02-13T23:00:02.321Z,12.55
2023-02-13T23:02:04.715Z,10.75
2023-02-13T23:04:06.419Z,10.65
2023-02-13T23:06:09.567Z,11.05
2023-02-13T23:08:11.395Z,12.60
2023-02-13T23:10:13.489Z,10.68
2023-02-13T23:12:34.231Z,10.63
2023-02-13T23:14:35.862Z,9.85
2023-02-13T23:16:57.916Z,9.98
2023-02-13T23:18:59.485Z,10.52
2023-02-13T23:21:05.122Z,9.73
2023-02-13T23:23:06.928Z,11.85
2023-02-13T23:25:08.814Z,10.23
2023-02-13T23:27:10.498Z,10.60
2023-02-13T23:29:12.157Z,9.48
2023-02-13T23:31:14.004Z,9.60
2023-02-13T23:33:15.680Z,10.00
2023-02-13T23:35:17.815Z,9.25
2023-02-13T23:37:19.528Z,9.30
2023-02-13T23:39:21.482Z,8.32
2023-02-13T23:41:23.139Z,8.45
2023-02-13T23:43:24.810Z,8.00
2023-02-13T23:45:26.448Z,9.48
2023-02-13T23:47:27.999Z,8.27
2023-02-13T23:49:29.977Z,9.38
2023-02-13T23:51:31.631Z,8.45
2023-02-13T23:53:36.591Z,7.93
2023-02-13T23:55:38.296Z,9.25
2023-02-13T23:57:39.999Z,8.10
2023-02-13T23:59:41.655Z,9.40
